sensor_id;sensor_type;location;lat;lon;timestamp;P1;durP1;ratioP1;P2;durP2;ratioP2
38399;SDS011;24180;42.676;23.320;2022-10-31T00:00:04;5.10;;;4.63;;
38399;SDS011;24180;42.676;23.320;2022-10-31T00:02:32;8.63;;;4.87;;
38399;SDS011;24180;42.676;23.320;2022-10-31T00:04:57;4.73;;;4.33;;
38399;SDS011;24180;42.676;23.320;2022-10-31T00:07:23;4.97;;;4.47;;
38399;SDS011;24180;42.676;23.320;2022-10-31T00:09:48;7.43;;;4.80;;
38399;SDS011;24180;42.676;23.320;2022-10-31T00:12:14;4.70;;;4.20;;
38399;SDS011;24180;42.676;23.320;2022-10-31T00:14:39;6.63;;;4.83;;
38399;SDS011;24180;42.676;23.320;2022-10-31T00:17:04;6.57;;;4.70;;
38399;SDS011;24180;42.676;23.320;2022-10-31T00:19:30;7.40;;;4.60;;
38399;SDS011;24180;42.676;23.320;2022-10-31T00:21:56;4.60;;;4.20;;
38399;SDS011;24180;42.676;23.320;2022-10-31T00:24:21;8.17;;;4.93;;
38399;SDS011;24180;42.676;23.320;2022-10-31T00:26:46;6.47;;;4.63;;
38399;SDS011;24180;42.676;23.320;2022-10-31T00:29:12;6.33;;;4.87;;
38399;SDS011;24180;42.676;23.320;2022-10-31T00:31:37;10.57;;;4.77;;
38399;SDS011;24180;42.676;23.320;2022-10-31T00:34:03;7.03;;;4.87;;
38399;SDS011;24180;42.676;23.320;2022-10-31T00:36:28;8.43;;;4.97;;
38399;SDS011;24180;42.676;23.320;2022-10-31T00:38:54;4.70;;;4.13;;
38399;SDS011;24180;42.676;23.320;2022-10-31T00:41:19;6.07;;;4.90;;
38399;SDS011;24180;42.676;23.320;2022-10-31T00:43:45;5.93;;;4.80;;
38399;SDS011;24180;42.676;23.320;2022-10-31T00:46:11;7.63;;;5.10;;
38399;SDS011;24180;42.676;23.320;2022-10-31T00:48:39;5.73;;;4.80;;
38399;SDS011;24180;42.676;23.320;2022-10-31T00:51:04;7.80;;;4.97;;
38399;SDS011;24180;42.676;23.320;2022-10-31T00:53:30;8.07;;;4.73;;
38399;SDS011;24180;42.676;23.320;2022-10-31T00:55:55;5.93;;;4.60;;
38399;SDS011;24180;42.676;23.320;2022-10-31T00:58:21;6.87;;;5.73;;
38399;SDS011;24180;42.676;23.320;2022-10-31T01:00:47;5.87;;;5.20;;
38399;SDS011;24180;42.676;23.320;2022-10-31T01:03:19;6.33;;;5.20;;
38399;SDS011;24180;42.676;23.320;2022-10-31T01:05:56;5.70;;;4.93;;
38399;SDS011;24180;42.676;23.320;2022-10-31T01:08:27;7.60;;;5.47;;
38399;SDS011;24180;42.676;23.320;2022-10-31T01:11:03;9.50;;;6.37;;
38399;SDS011;24180;42.676;23.320;2022-10-31T01:13:35;9.47;;;6.40;;
38399;SDS011;24180;42.676;23.320;2022-10-31T01:16:01;5.47;;;4.90;;
38399;SDS011;24180;42.676;23.320;2022-10-31T01:18:28;7.77;;;4.60;;
38399;SDS011;24180;42.676;23.320;2022-10-31T01:20:58;7.07;;;4.90;;
38399;SDS011;24180;42.676;23.320;2022-10-31T01:23:43;5.10;;;4.60;;
38399;SDS011;24180;42.676;23.320;2022-10-31T01:26:10;7.27;;;4.90;;
38399;SDS011;24180;42.676;23.320;2022-10-31T01:28:39;7.37;;;5.27;;
38399;SDS011;24180;42.676;23.320;2022-10-31T01:31:09;6.57;;;4.67;;
38399;SDS011;24180;42.676;23.320;2022-10-31T01:33:35;5.87;;;4.10;;
38399;SDS011;24180;42.676;23.320;2022-10-31T01:36:01;6.77;;;4.70;;
38399;SDS011;24180;42.676;23.320;2022-10-31T01:38:37;5.43;;;4.93;;
38399;SDS011;24180;42.676;23.320;2022-10-31T01:41:02;6.80;;;5.23;;
38399;SDS011;24180;42.676;23.320;2022-10-31T01:43:44;8.37;;;5.30;;
38399;SDS011;24180;42.676;23.320;2022-10-31T01:46:12;7.30;;;5.47;;
38399;SDS011;24180;42.676;23.320;2022-10-31T01:48:40;8.13;;;5.47;;
38399;SDS011;24180;42.676;23.320;2022-10-31T01:51:06;7.33;;;4.93;;
38399;SDS011;24180;42.676;23.320;2022-10-31T01:53:33;7.93;;;5.90;;
38399;SDS011;24180;42.676;23.320;2022-10-31T01:56:00;7.87;;;5.20;;
38399;SDS011;24180;42.676;23.320;2022-10-31T01:58:28;8.77;;;5.97;;
38399;SDS011;24180;42.676;23.320;2022-10-31T02:00:57;6.57;;;5.83;;
38399;SDS011;24180;42.676;23.320;2022-10-31T02:03:24;6.00;;;5.17;;
38399;SDS011;24180;42.676;23.320;2022-10-31T02:05:51;7.77;;;6.30;;
38399;SDS011;24180;42.676;23.320;2022-10-31T02:11:07;7.50;;;6.20;;
38399;SDS011;24180;42.676;23.320;2022-10-31T02:13:34;8.57;;;6.13;;
38399;SDS011;24180;42.676;23.320;2022-10-31T02:15:59;8.03;;;5.83;;
38399;SDS011;24180;42.676;23.320;2022-10-31T02:18:26;9.20;;;6.13;;
38399;SDS011;24180;42.676;23.320;2022-10-31T02:34:43;9.37;;;6.60;;
38399;SDS011;24180;42.676;23.320;2022-10-31T02:37:22;7.10;;;5.97;;
38399;SDS011;24180;42.676;23.320;2022-10-31T02:42:30;8.23;;;7.43;;
38399;SDS011;24180;42.676;23.320;2022-10-31T02:45:02;8.57;;;7.50;;
38399;SDS011;24180;42.676;23.320;2022-10-31T02:47:38;9.77;;;7.37;;
38399;SDS011;24180;42.676;23.320;2022-10-31T02:50:08;10.90;;;7.87;;
38399;SDS011;24180;42.676;23.320;2022-10-31T02:52:35;9.10;;;7.53;;
38399;SDS011;24180;42.676;23.320;2022-10-31T02:57:53;9.90;;;7.77;;
38399;SDS011;24180;42.676;23.320;2022-10-31T03:00:24;9.93;;;7.67;;
38399;SDS011;24180;42.676;23.320;2022-10-31T03:05:32;8.33;;;7.27;;
38399;SDS011;24180;42.676;23.320;2022-10-31T03:13:41;9.30;;;7.67;;
38399;SDS011;24180;42.676;23.320;2022-10-31T03:16:25;10.60;;;7.87;;
38399;SDS011;24180;42.676;23.320;2022-10-31T03:19:03;10.77;;;7.30;;
38399;SDS011;24180;42.676;23.320;2022-10-31T03:21:35;8.37;;;7.33;;
38399;SDS011;24180;42.676;23.320;2022-10-31T03:24:08;14.53;;;8.23;;
38399;SDS011;24180;42.676;23.320;2022-10-31T03:26:36;12.40;;;8.60;;
38399;SDS011;24180;42.676;23.320;2022-10-31T03:29:06;10.67;;;7.70;;
38399;SDS011;24180;42.676;23.320;2022-10-31T03:31:37;9.87;;;7.50;;
38399;SDS011;24180;42.676;23.320;2022-10-31T03:34:07;11.87;;;8.13;;
38399;SDS011;24180;42.676;23.320;2022-10-31T03:36:35;11.27;;;8.17;;
38399;SDS011;24180;42.676;23.320;2022-10-31T03:39:04;12.63;;;8.40;;
38399;SDS011;24180;42.676;23.320;2022-10-31T03:41:34;9.77;;;8.23;;
38399;SDS011;24180;42.676;23.320;2022-10-31T03:44:10;10.80;;;7.93;;
38399;SDS011;24180;42.676;23.320;2022-10-31T03:46:40;11.47;;;8.20;;
38399;SDS011;24180;42.676;23.320;2022-10-31T03:49:08;9.77;;;7.90;;
38399;SDS011;24180;42.676;23.320;2022-10-31T03:51:43;12.17;;;8.03;;
38399;SDS011;24180;42.676;23.320;2022-10-31T03:56:55;11.60;;;9.40;;
38399;SDS011;24180;42.676;23.320;2022-10-31T03:59:26;11.30;;;8.80;;
38399;SDS011;24180;42.676;23.320;2022-10-31T04:02:03;11.30;;;8.87;;
38399;SDS011;24180;42.676;23.320;2022-10-31T04:04:33;13.00;;;10.13;;
38399;SDS011;24180;42.676;23.320;2022-10-31T04:07:00;11.50;;;9.27;;
38399;SDS011;24180;42.676;23.320;2022-10-31T04:09:28;11.73;;;9.63;;
38399;SDS011;24180;42.676;23.320;2022-10-31T04:11:57;10.87;;;9.00;;
38399;SDS011;24180;42.676;23.320;2022-10-31T04:14:26;11.77;;;9.10;;
38399;SDS011;24180;42.676;23.320;2022-10-31T04:16:55;11.80;;;9.63;;
38399;SDS011;24180;42.676;23.320;2022-10-31T04:19:21;13.20;;;9.20;;
38399;SDS011;24180;42.676;23.320;2022-10-31T04:21:46;10.93;;;9.13;;
38399;SDS011;24180;42.676;23.320;2022-10-31T04:24:12;10.67;;;9.47;;
38399;SDS011;24180;42.676;23.320;2022-10-31T04:26:37;11.63;;;9.77;;
38399;SDS011;24180;42.676;23.320;2022-10-31T04:29:03;14.27;;;9.80;;
38399;SDS011;24180;42.676;23.320;2022-10-31T04:31:28;15.00;;;9.73;;
38399;SDS011;24180;42.676;23.320;2022-10-31T04:33:54;13.53;;;9.77;;
38399;SDS011;24180;42.676;23.320;2022-10-31T04:36:19;12.40;;;10.07;;
38399;SDS011;24180;42.676;23.320;2022-10-31T04:38:45;14.73;;;10.07;;
38399;SDS011;24180;42.676;23.320;2022-10-31T04:41:12;13.70;;;9.93;;
38399;SDS011;24180;42.676;23.320;2022-10-31T04:43:37;15.13;;;9.90;;
38399;SDS011;24180;42.676;23.320;2022-10-31T04:46:03;13.27;;;9.80;;
38399;SDS011;24180;42.676;23.320;2022-10-31T04:48:29;14.50;;;9.73;;
38399;SDS011;24180;42.676;23.320;2022-10-31T04:50:58;13.67;;;9.23;;
38399;SDS011;24180;42.676;23.320;2022-10-31T04:53:24;17.03;;;9.93;;
38399;SDS011;24180;42.676;23.320;2022-10-31T04:55:51;10.33;;;8.90;;
38399;SDS011;24180;42.676;23.320;2022-10-31T04:58:18;13.07;;;10.27;;
38399;SDS011;24180;42.676;23.320;2022-10-31T05:00:43;13.80;;;10.10;;
38399;SDS011;24180;42.676;23.320;2022-10-31T05:03:09;14.63;;;10.40;;
38399;SDS011;24180;42.676;23.320;2022-10-31T05:05:34;11.67;;;10.10;;
38399;SDS011;24180;42.676;23.320;2022-10-31T05:08:00;12.67;;;9.40;;
38399;SDS011;24180;42.676;23.320;2022-10-31T05:10:26;14.47;;;10.47;;
38399;SDS011;24180;42.676;23.320;2022-10-31T05:12:55;14.00;;;10.13;;
38399;SDS011;24180;42.676;23.320;2022-10-31T05:15:23;14.80;;;9.60;;
38399;SDS011;24180;42.676;23.320;2022-10-31T05:17:49;12.87;;;9.83;;
38399;SDS011;24180;42.676;23.320;2022-10-31T05:20:16;11.70;;;9.83;;
38399;SDS011;24180;42.676;23.320;2022-10-31T05:22:45;16.17;;;10.27;;
38399;SDS011;24180;42.676;23.320;2022-10-31T05:25:12;14.60;;;11.60;;
38399;SDS011;24180;42.676;23.320;2022-10-31T05:27:41;13.87;;;10.17;;
38399;SDS011;24180;42.676;23.320;2022-10-31T05:30:09;14.03;;;11.03;;
38399;SDS011;24180;42.676;23.320;2022-10-31T05:32:37;14.73;;;10.70;;
38399;SDS011;24180;42.676;23.320;2022-10-31T05:35:07;18.53;;;10.87;;
38399;SDS011;24180;42.676;23.320;2022-10-31T05:37:34;17.13;;;10.60;;
38399;SDS011;24180;42.676;23.320;2022-10-31T05:40:00;17.33;;;11.13;;
38399;SDS011;24180;42.676;23.320;2022-10-31T05:42:27;18.17;;;13.20;;
38399;SDS011;24180;42.676;23.320;2022-10-31T05:44:52;22.63;;;15.97;;
38399;SDS011;24180;42.676;23.320;2022-10-31T05:47:17;15.73;;;13.27;;
38399;SDS011;24180;42.676;23.320;2022-10-31T05:49:43;16.97;;;12.87;;
38399;SDS011;24180;42.676;23.320;2022-10-31T05:52:08;16.87;;;11.53;;
38399;SDS011;24180;42.676;23.320;2022-10-31T05:54:34;16.43;;;11.27;;
38399;SDS011;24180;42.676;23.320;2022-10-31T05:56:59;14.03;;;10.97;;
38399;SDS011;24180;42.676;23.320;2022-10-31T05:59:25;15.50;;;11.07;;
38399;SDS011;24180;42.676;23.320;2022-10-31T06:01:50;17.93;;;10.70;;
38399;SDS011;24180;42.676;23.320;2022-10-31T06:04:15;18.27;;;11.13;;
38399;SDS011;24180;42.676;23.320;2022-10-31T06:06:41;20.13;;;12.10;;
38399;SDS011;24180;42.676;23.320;2022-10-31T06:09:08;12.83;;;11.33;;
38399;SDS011;24180;42.676;23.320;2022-10-31T06:11:34;15.67;;;12.13;;
38399;SDS011;24180;42.676;23.320;2022-10-31T06:14:00;23.03;;;13.40;;
38399;SDS011;24180;42.676;23.320;2022-10-31T06:16:27;20.80;;;13.30;;
38399;SDS011;24180;42.676;23.320;2022-10-31T06:18:53;19.37;;;13.97;;
38399;SDS011;24180;42.676;23.320;2022-10-31T06:21:18;20.27;;;13.13;;
38399;SDS011;24180;42.676;23.320;2022-10-31T06:23:43;17.17;;;13.30;;
38399;SDS011;24180;42.676;23.320;2022-10-31T06:26:09;17.10;;;13.47;;
38399;SDS011;24180;42.676;23.320;2022-10-31T06:28:35;20.10;;;13.10;;
38399;SDS011;24180;42.676;23.320;2022-10-31T06:31:01;20.97;;;14.17;;
38399;SDS011;24180;42.676;23.320;2022-10-31T06:33:26;16.47;;;12.90;;
38399;SDS011;24180;42.676;23.320;2022-10-31T06:35:52;17.80;;;14.50;;
38399;SDS011;24180;42.676;23.320;2022-10-31T06:38:17;15.83;;;13.27;;
38399;SDS011;24180;42.676;23.320;2022-10-31T06:40:43;21.13;;;15.80;;
38399;SDS011;24180;42.676;23.320;2022-10-31T06:43:09;22.70;;;14.70;;
38399;SDS011;24180;42.676;23.320;2022-10-31T06:45:39;24.37;;;16.20;;
38399;SDS011;24180;42.676;23.320;2022-10-31T06:48:04;18.70;;;12.90;;
38399;SDS011;24180;42.676;23.320;2022-10-31T06:50:30;15.20;;;12.70;;
38399;SDS011;24180;42.676;23.320;2022-10-31T06:52:56;21.90;;;12.73;;
38399;SDS011;24180;42.676;23.320;2022-10-31T06:55:23;20.07;;;13.40;;
38399;SDS011;24180;42.676;23.320;2022-10-31T06:57:53;16.67;;;13.20;;
38399;SDS011;24180;42.676;23.320;2022-10-31T07:00:19;18.33;;;14.10;;
38399;SDS011;24180;42.676;23.320;2022-10-31T07:02:52;25.00;;;14.67;;
38399;SDS011;24180;42.676;23.320;2022-10-31T07:05:18;17.80;;;12.97;;
38399;SDS011;24180;42.676;23.320;2022-10-31T07:07:44;19.27;;;13.00;;
38399;SDS011;24180;42.676;23.320;2022-10-31T07:10:09;16.70;;;14.93;;
38399;SDS011;24180;42.676;23.320;2022-10-31T07:12:35;17.20;;;13.80;;
38399;SDS011;24180;42.676;23.320;2022-10-31T07:15:02;19.50;;;13.50;;
38399;SDS011;24180;42.676;23.320;2022-10-31T07:17:27;22.47;;;14.87;;
38399;SDS011;24180;42.676;23.320;2022-10-31T07:19:53;19.77;;;15.13;;
38399;SDS011;24180;42.676;23.320;2022-10-31T07:22:18;16.70;;;14.13;;
38399;SDS011;24180;42.676;23.320;2022-10-31T07:24:44;20.50;;;14.67;;
38399;SDS011;24180;42.676;23.320;2022-10-31T07:27:09;19.90;;;15.97;;
38399;SDS011;24180;42.676;23.320;2022-10-31T07:29:34;20.87;;;16.93;;
38399;SDS011;24180;42.676;23.320;2022-10-31T07:32:00;22.03;;;15.13;;
38399;SDS011;24180;42.676;23.320;2022-10-31T07:34:26;27.27;;;17.97;;
38399;SDS011;24180;42.676;23.320;2022-10-31T07:36:52;23.23;;;17.27;;
38399;SDS011;24180;42.676;23.320;2022-10-31T07:39:17;22.67;;;20.27;;
38399;SDS011;24180;42.676;23.320;2022-10-31T07:41:43;20.17;;;16.17;;
38399;SDS011;24180;42.676;23.320;2022-10-31T07:44:08;19.03;;;15.17;;
38399;SDS011;24180;42.676;23.320;2022-10-31T07:46:34;20.03;;;16.03;;
38399;SDS011;24180;42.676;23.320;2022-10-31T07:48:59;23.07;;;16.13;;
38399;SDS011;24180;42.676;23.320;2022-10-31T07:51:25;19.50;;;15.07;;
38399;SDS011;24180;42.676;23.320;2022-10-31T07:53:51;21.13;;;16.13;;
38399;SDS011;24180;42.676;23.320;2022-10-31T07:56:17;29.57;;;16.83;;
38399;SDS011;24180;42.676;23.320;2022-10-31T07:58:42;21.80;;;15.87;;
38399;SDS011;24180;42.676;23.320;2022-10-31T08:01:08;17.80;;;15.90;;
38399;SDS011;24180;42.676;23.320;2022-10-31T08:03:33;17.30;;;15.37;;
38399;SDS011;24180;42.676;23.320;2022-10-31T08:05:58;23.27;;;15.73;;
38399;SDS011;24180;42.676;23.320;2022-10-31T08:08:24;20.90;;;15.53;;
38399;SDS011;24180;42.676;23.320;2022-10-31T08:10:49;22.67;;;15.90;;
38399;SDS011;24180;42.676;23.320;2022-10-31T08:13:15;21.20;;;16.63;;
38399;SDS011;24180;42.676;23.320;2022-10-31T08:15:40;18.87;;;16.50;;
38399;SDS011;24180;42.676;23.320;2022-10-31T08:18:10;19.87;;;16.37;;
38399;SDS011;24180;42.676;23.320;2022-10-31T08:20:37;25.63;;;15.97;;
38399;SDS011;24180;42.676;23.320;2022-10-31T08:23:04;18.17;;;16.23;;
38399;SDS011;24180;42.676;23.320;2022-10-31T08:25:31;23.47;;;17.27;;
38399;SDS011;24180;42.676;23.320;2022-10-31T08:27:58;24.93;;;17.77;;
38399;SDS011;24180;42.676;23.320;2022-10-31T08:30:26;24.90;;;17.47;;
38399;SDS011;24180;42.676;23.320;2022-10-31T08:33:03;24.03;;;17.00;;
38399;SDS011;24180;42.676;23.320;2022-10-31T08:35:34;23.70;;;17.63;;
38399;SDS011;24180;42.676;23.320;2022-10-31T08:38:00;23.63;;;17.20;;
38399;SDS011;24180;42.676;23.320;2022-10-31T08:40:27;23.80;;;16.63;;
38399;SDS011;24180;42.676;23.320;2022-10-31T08:43:01;20.87;;;16.90;;
38399;SDS011;24180;42.676;23.320;2022-10-31T08:45:32;24.30;;;19.47;;
38399;SDS011;24180;42.676;23.320;2022-10-31T08:48:03;22.57;;;16.77;;
38399;SDS011;24180;42.676;23.320;2022-10-31T08:50:31;24.77;;;17.63;;
38399;SDS011;24180;42.676;23.320;2022-10-31T08:53:02;23.10;;;17.43;;
38399;SDS011;24180;42.676;23.320;2022-10-31T08:55:35;20.80;;;17.43;;
38399;SDS011;24180;42.676;23.320;2022-10-31T08:58:02;23.93;;;18.47;;
38399;SDS011;24180;42.676;23.320;2022-10-31T09:00:29;29.73;;;27.00;;
38399;SDS011;24180;42.676;23.320;2022-10-31T09:02:58;23.13;;;20.70;;
38399;SDS011;24180;42.676;23.320;2022-10-31T09:05:25;19.90;;;16.83;;
38399;SDS011;24180;42.676;23.320;2022-10-31T09:07:57;27.23;;;18.70;;
38399;SDS011;24180;42.676;23.320;2022-10-31T09:10:23;19.97;;;17.70;;
38399;SDS011;24180;42.676;23.320;2022-10-31T09:12:56;25.83;;;18.63;;
38399;SDS011;24180;42.676;23.320;2022-10-31T09:15:22;18.93;;;16.07;;
38399;SDS011;24180;42.676;23.320;2022-10-31T09:17:48;21.30;;;15.50;;
38399;SDS011;24180;42.676;23.320;2022-10-31T09:20:15;19.50;;;14.00;;
38399;SDS011;24180;42.676;23.320;2022-10-31T09:22:41;16.38;;;12.93;;
38399;SDS011;24180;42.676;23.320;2022-10-31T09:25:07;19.27;;;13.73;;
38399;SDS011;24180;42.676;23.320;2022-10-31T09:27:33;13.35;;;12.05;;
38399;SDS011;24180;42.676;23.320;2022-10-31T09:29:58;18.58;;;13.18;;
38399;SDS011;24180;42.676;23.320;2022-10-31T09:32:24;15.07;;;12.40;;
38399;SDS011;24180;42.676;23.320;2022-10-31T09:34:49;13.93;;;11.93;;
38399;SDS011;24180;42.676;23.320;2022-10-31T09:37:14;15.82;;;11.63;;
38399;SDS011;24180;42.676;23.320;2022-10-31T09:39:40;11.27;;;9.55;;
38399;SDS011;24180;42.676;23.320;2022-10-31T09:54:02;13.25;;;9.45;;
38399;SDS011;24180;42.676;23.320;2022-10-31T09:56:36;13.45;;;9.35;;
38399;SDS011;24180;42.676;23.320;2022-10-31T09:59:03;12.43;;;11.23;;
38399;SDS011;24180;42.676;23.320;2022-10-31T10:01:33;13.80;;;10.02;;
38399;SDS011;24180;42.676;23.320;2022-10-31T10:06:57;13.57;;;9.38;;
38399;SDS011;24180;42.676;23.320;2022-10-31T10:09:25;10.82;;;8.95;;
38399;SDS011;24180;42.676;23.320;2022-10-31T10:11:58;10.77;;;9.75;;
38399;SDS011;24180;42.676;23.320;2022-10-31T10:20:35;9.52;;;8.55;;
38399;SDS011;24180;42.676;23.320;2022-10-31T10:25:38;9.88;;;6.80;;
38399;SDS011;24180;42.676;23.320;2022-10-31T10:28:14;7.97;;;6.88;;
38399;SDS011;24180;42.676;23.320;2022-10-31T10:36:26;6.90;;;5.38;;
38399;SDS011;24180;42.676;23.320;2022-10-31T10:39:14;8.43;;;6.75;;
38399;SDS011;24180;42.676;23.320;2022-10-31T10:41:49;10.77;;;9.88;;
38399;SDS011;24180;42.676;23.320;2022-10-31T10:44:37;8.27;;;6.32;;
38399;SDS011;24180;42.676;23.320;2022-10-31T10:47:26;8.23;;;5.57;;
38399;SDS011;24180;42.676;23.320;2022-10-31T10:50:17;12.10;;;6.55;;
38399;SDS011;24180;42.676;23.320;2022-10-31T10:52:54;10.13;;;7.75;;
38399;SDS011;24180;42.676;23.320;2022-10-31T10:55:51;9.13;;;8.15;;
38399;SDS011;24180;42.676;23.320;2022-10-31T10:58:23;11.32;;;10.32;;
38399;SDS011;24180;42.676;23.320;2022-10-31T11:00:48;7.75;;;7.10;;
38399;SDS011;24180;42.676;23.320;2022-10-31T11:03:17;8.20;;;6.30;;
38399;SDS011;24180;42.676;23.320;2022-10-31T11:06:01;7.88;;;5.47;;
38399;SDS011;24180;42.676;23.320;2022-10-31T11:13:24;9.90;;;7.35;;
38399;SDS011;24180;42.676;23.320;2022-10-31T11:15:51;9.70;;;8.38;;
38399;SDS011;24180;42.676;23.320;2022-10-31T11:18:41;6.32;;;5.30;;
38399;SDS011;24180;42.676;23.320;2022-10-31T11:21:28;9.25;;;5.15;;
38399;SDS011;24180;42.676;23.320;2022-10-31T11:24:11;9.63;;;5.72;;
38399;SDS011;24180;42.676;23.320;2022-10-31T11:26:38;10.13;;;5.70;;
38399;SDS011;24180;42.676;23.320;2022-10-31T11:29:05;6.60;;;5.32;;
38399;SDS011;24180;42.676;23.320;2022-10-31T11:31:39;9.50;;;5.25;;
38399;SDS011;24180;42.676;23.320;2022-10-31T11:34:06;7.03;;;5.28;;
38399;SDS011;24180;42.676;23.320;2022-10-31T11:36:39;7.13;;;5.60;;
38399;SDS011;24180;42.676;23.320;2022-10-31T11:39:16;9.45;;;5.90;;
38399;SDS011;24180;42.676;23.320;2022-10-31T11:41:45;6.95;;;5.47;;
38399;SDS011;24180;42.676;23.320;2022-10-31T11:44:16;7.47;;;5.35;;
38399;SDS011;24180;42.676;23.320;2022-10-31T11:46:46;7.28;;;6.20;;
38399;SDS011;24180;42.676;23.320;2022-10-31T11:49:18;8.88;;;7.28;;
38399;SDS011;24180;42.676;23.320;2022-10-31T11:51:48;7.88;;;5.57;;
38399;SDS011;24180;42.676;23.320;2022-10-31T11:54:20;10.65;;;6.00;;
38399;SDS011;24180;42.676;23.320;2022-10-31T11:57:21;8.25;;;5.75;;
38399;SDS011;24180;42.676;23.320;2022-10-31T11:59:56;8.05;;;6.57;;
38399;SDS011;24180;42.676;23.320;2022-10-31T12:02:23;9.40;;;5.88;;
38399;SDS011;24180;42.676;23.320;2022-10-31T12:07:54;13.10;;;6.18;;
38399;SDS011;24180;42.676;23.320;2022-10-31T12:10:20;10.48;;;4.97;;
38399;SDS011;24180;42.676;23.320;2022-10-31T12:15:55;6.25;;;5.20;;
38399;SDS011;24180;42.676;23.320;2022-10-31T12:18:56;12.98;;;6.10;;
38399;SDS011;24180;42.676;23.320;2022-10-31T12:21:33;11.35;;;7.57;;
38399;SDS011;24180;42.676;23.320;2022-10-31T12:27:10;10.23;;;8.30;;
38399;SDS011;24180;42.676;23.320;2022-10-31T12:38:15;5.88;;;4.40;;
38399;SDS011;24180;42.676;23.320;2022-10-31T12:40:53;8.65;;;6.35;;
38399;SDS011;24180;42.676;23.320;2022-10-31T12:49:15;9.82;;;7.07;;
38399;SDS011;24180;42.676;23.320;2022-10-31T13:00:19;8.27;;;7.45;;
38399;SDS011;24180;42.676;23.320;2022-10-31T13:02:54;12.90;;;7.07;;
38399;SDS011;24180;42.676;23.320;2022-10-31T13:05:40;7.40;;;6.18;;
38399;SDS011;24180;42.676;23.320;2022-10-31T13:08:11;7.75;;;6.57;;
38399;SDS011;24180;42.676;23.320;2022-10-31T13:13:32;11.15;;;5.80;;
38399;SDS011;24180;42.676;23.320;2022-10-31T13:16:11;10.73;;;7.93;;
38399;SDS011;24180;42.676;23.320;2022-10-31T13:18:47;9.73;;;8.45;;
38399;SDS011;24180;42.676;23.320;2022-10-31T13:21:26;11.63;;;6.03;;
38399;SDS011;24180;42.676;23.320;2022-10-31T13:23:57;9.82;;;6.53;;
38399;SDS011;24180;42.676;23.320;2022-10-31T13:26:37;9.23;;;6.30;;
38399;SDS011;24180;42.676;23.320;2022-10-31T13:29:11;10.23;;;6.22;;
38399;SDS011;24180;42.676;23.320;2022-10-31T13:31:41;9.63;;;5.80;;
38399;SDS011;24180;42.676;23.320;2022-10-31T13:34:17;11.68;;;6.80;;
38399;SDS011;24180;42.676;23.320;2022-10-31T13:43:10;10.50;;;7.18;;
38399;SDS011;24180;42.676;23.320;2022-10-31T13:45:51;8.90;;;7.65;;
38399;SDS011;24180;42.676;23.320;2022-10-31T13:50:59;10.38;;;6.13;;
38399;SDS011;24180;42.676;23.320;2022-10-31T13:58:34;12.23;;;10.27;;
38399;SDS011;24180;42.676;23.320;2022-10-31T14:03:38;33.88;;;8.65;;
38399;SDS011;24180;42.676;23.320;2022-10-31T14:06:05;16.23;;;7.28;;
38399;SDS011;24180;42.676;23.320;2022-10-31T14:08:34;13.82;;;7.07;;
38399;SDS011;24180;42.676;23.320;2022-10-31T14:11:02;14.48;;;8.13;;
38399;SDS011;24180;42.676;23.320;2022-10-31T14:13:32;11.30;;;7.30;;
38399;SDS011;24180;42.676;23.320;2022-10-31T14:16:04;13.95;;;6.82;;
38399;SDS011;24180;42.676;23.320;2022-10-31T14:18:41;10.57;;;6.57;;
38399;SDS011;24180;42.676;23.320;2022-10-31T14:23:50;17.20;;;7.25;;
38399;SDS011;24180;42.676;23.320;2022-10-31T14:28:49;17.33;;;9.25;;
38399;SDS011;24180;42.676;23.320;2022-10-31T14:31:32;16.73;;;9.23;;
38399;SDS011;24180;42.676;23.320;2022-10-31T14:34:23;18.38;;;7.57;;
38399;SDS011;24180;42.676;23.320;2022-10-31T14:53:04;13.60;;;7.20;;
38399;SDS011;24180;42.676;23.320;2022-10-31T14:55:32;19.23;;;6.50;;
38399;SDS011;24180;42.676;23.320;2022-10-31T14:57:59;17.35;;;7.18;;
38399;SDS011;24180;42.676;23.320;2022-10-31T15:00:29;16.10;;;8.02;;
38399;SDS011;24180;42.676;23.320;2022-10-31T15:03:01;15.47;;;8.33;;
38399;SDS011;24180;42.676;23.320;2022-10-31T15:06:22;17.08;;;13.32;;
38399;SDS011;24180;42.676;23.320;2022-10-31T15:08:38;14.97;;;13.43;;
38399;SDS011;24180;42.676;23.320;2022-10-31T15:11:14;10.63;;;7.83;;
38399;SDS011;24180;42.676;23.320;2022-10-31T15:13:50;16.90;;;6.27;;
38399;SDS011;24180;42.676;23.320;2022-10-31T15:16:21;23.03;;;10.33;;
38399;SDS011;24180;42.676;23.320;2022-10-31T15:18:59;14.93;;;8.50;;
38399;SDS011;24180;42.676;23.320;2022-10-31T15:21:32;14.90;;;7.37;;
38399;SDS011;24180;42.676;23.320;2022-10-31T15:23:58;19.47;;;8.40;;
38399;SDS011;24180;42.676;23.320;2022-10-31T15:26:31;25.03;;;9.07;;
38399;SDS011;24180;42.676;23.320;2022-10-31T15:29:04;22.67;;;8.30;;
38399;SDS011;24180;42.676;23.320;2022-10-31T15:31:32;27.83;;;11.10;;
38399;SDS011;24180;42.676;23.320;2022-10-31T15:34:03;21.93;;;9.57;;
38399;SDS011;24180;42.676;23.320;2022-10-31T15:36:38;24.63;;;8.57;;
38399;SDS011;24180;42.676;23.320;2022-10-31T15:39:04;22.23;;;8.90;;
38399;SDS011;24180;42.676;23.320;2022-10-31T15:41:31;27.43;;;9.07;;
38399;SDS011;24180;42.676;23.320;2022-10-31T15:44:00;22.10;;;9.53;;
38399;SDS011;24180;42.676;23.320;2022-10-31T15:46:29;24.13;;;9.10;;
38399;SDS011;24180;42.676;23.320;2022-10-31T15:48:56;22.83;;;9.13;;
38399;SDS011;24180;42.676;23.320;2022-10-31T15:51:30;23.80;;;9.40;;
38399;SDS011;24180;42.676;23.320;2022-10-31T15:53:58;23.30;;;8.07;;
38399;SDS011;24180;42.676;23.320;2022-10-31T15:56:28;25.10;;;8.00;;
38399;SDS011;24180;42.676;23.320;2022-10-31T15:58:56;20.70;;;7.93;;
38399;SDS011;24180;42.676;23.320;2022-10-31T16:01:24;20.90;;;7.80;;
38399;SDS011;24180;42.676;23.320;2022-10-31T16:04:01;24.47;;;7.60;;
38399;SDS011;24180;42.676;23.320;2022-10-31T16:06:29;26.73;;;7.37;;
38399;SDS011;24180;42.676;23.320;2022-10-31T16:08:55;21.93;;;10.00;;
38399;SDS011;24180;42.676;23.320;2022-10-31T16:11:32;21.53;;;9.00;;
38399;SDS011;24180;42.676;23.320;2022-10-31T16:14:06;25.07;;;8.57;;
38399;SDS011;24180;42.676;23.320;2022-10-31T16:16:42;16.60;;;7.20;;
38399;SDS011;24180;42.676;23.320;2022-10-31T16:21:42;13.20;;;6.23;;
38399;SDS011;24180;42.676;23.320;2022-10-31T16:27:00;19.87;;;8.23;;
38399;SDS011;24180;42.676;23.320;2022-10-31T16:29:45;20.23;;;7.60;;
38399;SDS011;24180;42.676;23.320;2022-10-31T16:32:27;17.13;;;7.37;;
38399;SDS011;24180;42.676;23.320;2022-10-31T16:37:39;20.63;;;7.10;;
38399;SDS011;24180;42.676;23.320;2022-10-31T16:40:06;18.23;;;7.83;;
38399;SDS011;24180;42.676;23.320;2022-10-31T16:42:33;19.07;;;7.00;;
38399;SDS011;24180;42.676;23.320;2022-10-31T16:44:59;18.93;;;6.93;;
38399;SDS011;24180;42.676;23.320;2022-10-31T16:47:24;18.20;;;7.27;;
38399;SDS011;24180;42.676;23.320;2022-10-31T16:49:50;22.77;;;8.37;;
38399;SDS011;24180;42.676;23.320;2022-10-31T16:52:17;16.43;;;7.47;;
38399;SDS011;24180;42.676;23.320;2022-10-31T16:54:43;15.23;;;6.63;;
38399;SDS011;24180;42.676;23.320;2022-10-31T16:57:18;18.93;;;7.10;;
38399;SDS011;24180;42.676;23.320;2022-10-31T16:59:51;16.30;;;9.97;;
38399;SDS011;24180;42.676;23.320;2022-10-31T17:02:18;22.93;;;8.00;;